createdAt,value
2023-05-05T00:02:23.777Z,15.10
2023-05-05T00:04:50.192Z,17.10
2023-05-05T00:07:16.807Z,15.20
2023-05-05T00:09:43.179Z,17.00
2023-05-05T00:12:09.698Z,14.90
2023-05-05T00:14:36.244Z,16.20
2023-05-05T00:17:03.437Z,12.80
2023-05-05T00:19:29.848Z,16.30
2023-05-05T00:21:56.389Z,14.40
2023-05-05T00:24:22.909Z,13.20
2023-05-05T00:26:49.285Z,11.00
2023-05-05T00:29:15.639Z,10.20
2023-05-05T00:31:42.175Z,9.70
2023-05-05T00:34:08.694Z,9.50
2023-05-05T00:36:35.308Z,10.10
2023-05-05T00:39:01.760Z,10.00
2023-05-05T00:41:28.422Z,10.00
2023-05-05T00:43:54.799Z,8.80
2023-05-05T00:46:26.810Z,9.50
2023-05-05T00:48:53.935Z,11.90
2023-05-05T00:51:21.541Z,9.30
2023-05-05T00:53:48.399Z,9.20
2023-05-05T00:56:19.210Z,9.50
2023-05-05T00:58:46.180Z,10.60
2023-05-05T01:01:13.178Z,9.60
2023-05-05T01:03:43.342Z,12.90
2023-05-05T01:06:19.466Z,9.90
2023-05-05T01:09:01.193Z,10.30
2023-05-05T01:11:52.956Z,10.50
2023-05-05T01:14:26.485Z,11.00
2023-05-05T01:16:59.596Z,10.80
2023-05-05T01:19:51.041Z,11.90
2023-05-05T01:22:19.917Z,9.80
2023-05-05T01:25:14.124Z,8.70
2023-05-05T01:28:16.744Z,12.40
2023-05-05T01:30:47.774Z,10.60
2023-05-05T01:33:19.967Z,9.40
2023-05-05T01:35:50.715Z,10.50
2023-05-05T01:38:21.591Z,10.90
2023-05-05T01:41:02.518Z,8.20
2023-05-05T01:43:30.456Z,9.40
2023-05-05T01:45:57.896Z,9.00
2023-05-05T01:48:25.750Z,8.80
2023-05-05T01:50:52.791Z,8.00
2023-05-05T01:53:20.554Z,8.10
2023-05-05T01:55:49.310Z,7.50
2023-05-05T01:58:16.192Z,7.90
2023-05-05T02:00:43.902Z,7.70
2023-05-05T02:03:11.816Z,8.90
2023-05-05T02:05:39.191Z,10.50
2023-05-05T02:08:06.160Z,8.00
2023-05-05T02:10:32.982Z,10.80
2023-05-05T02:13:02.195Z,9.50
2023-05-05T02:15:28.994Z,8.60
2023-05-05T02:17:56.478Z,10.80
2023-05-05T02:20:24.242Z,9.60
2023-05-05T02:22:50.644Z,7.70
2023-05-05T02:25:17.359Z,9.10
2023-05-05T02:27:46.023Z,7.20
2023-05-05T02:30:14.765Z,7.40
2023-05-05T02:32:54.748Z,9.20
2023-05-05T02:35:26.191Z,6.90
2023-05-05T02:38:02.205Z,7.50
2023-05-05T02:40:33.866Z,9.90
2023-05-05T02:43:05.937Z,6.80
2023-05-05T02:45:33.377Z,6.90
2023-05-05T02:48:03.956Z,7.80
2023-05-05T02:50:32.460Z,7.00
2023-05-05T02:53:09.423Z,8.10
2023-05-05T02:55:45.001Z,8.30
2023-05-05T02:58:23.085Z,7.20
2023-05-05T03:00:50.418Z,10.00
2023-05-05T03:03:46.756Z,6.00
2023-05-05T03:06:17.252Z,8.10
2023-05-05T03:09:08.381Z,13.00
2023-05-05T03:11:40.274Z,10.40
2023-05-05T03:14:10.776Z,10.80
2023-05-05T03:16:39.239Z,10.50
2023-05-05T03:19:08.209Z,15.40
2023-05-05T03:21:35.676Z,11.20
2023-05-05T03:24:15.627Z,13.50
2023-05-05T03:26:43.789Z,9.00
2023-05-05T03:29:11.298Z,9.30
2023-05-05T03:31:39.329Z,9.30
2023-05-05T03:34:06.542Z,8.70
2023-05-05T03:36:38.274Z,10.80
2023-05-05T03:39:05.301Z,8.10
2023-05-05T03:41:33.148Z,9.30
2023-05-05T03:44:00.021Z,11.30
2023-05-05T03:46:26.737Z,10.80
2023-05-05T03:48:56.329Z,9.10
2023-05-05T03:51:23.960Z,9.40
2023-05-05T03:53:51.225Z,8.60
2023-05-05T03:56:17.997Z,10.50
2023-05-05T03:58:44.437Z,10.40
2023-05-05T04:01:11.125Z,10.70
2023-05-05T04:03:38.691Z,9.60
2023-05-05T04:06:05.419Z,11.90
2023-05-05T04:08:32.106Z,8.70
2023-05-05T04:11:01.476Z,10.50
2023-05-05T04:13:28.887Z,9.60
2023-05-05T04:15:56.061Z,10.60
2023-05-05T04:18:22.754Z,11.00
2023-05-05T04:20:50.097Z,9.90
2023-05-05T04:23:16.789Z,10.40
2023-05-05T04:25:44.363Z,12.60
2023-05-05T04:28:11.425Z,14.70
2023-05-05T04:30:38.037Z,18.70
2023-05-05T04:33:04.572Z,10.70
2023-05-05T04:35:31.428Z,13.20
2023-05-05T04:37:58.185Z,19.80
2023-05-05T04:40:25.628Z,12.90
2023-05-05T04:42:52.894Z,16.80
2023-05-05T04:45:19.358Z,15.70
2023-05-05T04:47:46.799Z,14.00
2023-05-05T04:50:13.765Z,15.50
2023-05-05T04:52:40.195Z,16.60
2023-05-05T04:55:08.391Z,21.30
2023-05-05T04:57:35.107Z,18.00
2023-05-05T05:00:04.083Z,13.60
2023-05-05T05:02:30.527Z,17.80
2023-05-05T05:04:57.023Z,20.10
2023-05-05T05:07:23.726Z,16.40
2023-05-05T05:09:50.305Z,17.90
2023-05-05T05:12:16.710Z,15.80
2023-05-05T05:14:43.227Z,17.10
2023-05-05T05:17:09.659Z,15.90
2023-05-05T05:19:36.115Z,17.10
2023-05-05T05:22:03.420Z,16.50
2023-05-05T05:24:30.540Z,17.30
2023-05-05T05:26:57.987Z,21.00
2023-05-05T05:29:24.746Z,19.00
2023-05-05T05:31:51.183Z,17.00
2023-05-05T05:34:17.583Z,16.90
2023-05-05T05:36:44.514Z,19.70
2023-05-05T05:39:10.965Z,19.90
2023-05-05T05:41:37.660Z,19.60
2023-05-05T05:44:04.623Z,16.50
2023-05-05T05:46:31.407Z,18.60
2023-05-05T05:48:57.897Z,15.10
2023-05-05T05:51:25.744Z,17.10
2023-05-05T05:53:52.482Z,15.80
2023-05-05T05:56:19.324Z,18.90
2023-05-05T05:58:47.935Z,15.90
2023-05-05T06:01:15.304Z,14.60
2023-05-05T06:03:42.116Z,18.40
2023-05-05T06:06:08.727Z,20.30
2023-05-05T06:08:35.395Z,16.50
2023-05-05T06:11:02.234Z,17.70
2023-05-05T06:13:28.964Z,17.10
2023-05-05T06:15:55.540Z,15.20
2023-05-05T06:18:22.553Z,16.00
2023-05-05T06:20:50.216Z,18.20
2023-05-05T06:23:17.418Z,16.60
2023-05-05T06:25:48.063Z,17.60
2023-05-05T06:28:14.437Z,13.30
2023-05-05T06:30:41.325Z,14.10
2023-05-05T06:33:07.892Z,17.30
2023-05-05T06:35:34.457Z,18.40
2023-05-05T06:38:00.907Z,17.00
2023-05-05T06:40:27.495Z,18.00
2023-05-05T06:42:53.870Z,18.40
2023-05-05T06:45:23.180Z,16.70
2023-05-05T06:47:49.771Z,19.60
2023-05-05T06:50:16.364Z,16.00
2023-05-05T06:52:42.764Z,14.70
2023-05-05T06:55:09.536Z,15.00
2023-05-05T06:57:36.024Z,15.30
2023-05-05T07:00:05.107Z,18.70
2023-05-05T07:02:33.165Z,16.40
2023-05-05T07:04:59.577Z,18.20
2023-05-05T07:07:26.393Z,14.80
2023-05-05T07:09:52.740Z,14.50
2023-05-05T07:12:19.220Z,18.20
2023-05-05T07:14:46.208Z,18.70
2023-05-05T07:17:12.728Z,14.30
2023-05-05T07:19:39.143Z,12.20
2023-05-05T07:22:05.633Z,12.40
2023-05-05T07:24:32.094Z,13.70
2023-05-05T07:26:58.609Z,14.10
2023-05-05T07:29:24.949Z,13.50
2023-05-05T07:31:51.496Z,14.60
2023-05-05T07:34:17.915Z,15.20
2023-05-05T07:36:44.642Z,11.50
2023-05-05T07:39:14.253Z,12.40
2023-05-05T07:41:41.644Z,12.10
2023-05-05T07:44:08.117Z,16.50
2023-05-05T07:46:34.548Z,14.20
2023-05-05T07:49:00.944Z,14.90
2023-05-05T07:51:27.395Z,14.30
2023-05-05T07:53:55.071Z,19.80
2023-05-05T07:56:21.924Z,13.40
2023-05-05T07:58:48.478Z,18.00
2023-05-05T13:02:56.000Z,5.00
2023-05-05T13:05:32.530Z,6.40
2023-05-05T13:07:59.368Z,4.90
2023-05-05T13:10:27.381Z,3.30
2023-05-05T13:12:57.801Z,3.10
2023-05-05T13:15:25.280Z,6.90
2023-05-05T13:17:59.619Z,3.30
2023-05-05T13:20:26.282Z,3.60
2023-05-05T13:22:52.705Z,3.90
2023-05-05T13:25:19.127Z,2.80
2023-05-05T13:27:45.620Z,2.60
2023-05-05T13:30:12.656Z,3.70
2023-05-05T13:32:39.168Z,6.60
2023-05-05T13:35:06.338Z,8.80
2023-05-05T13:37:32.877Z,3.10
2023-05-05T13:39:59.717Z,4.70
2023-05-05T13:42:26.043Z,3.60
2023-05-05T13:44:53.112Z,3.60
2023-05-05T13:47:19.681Z,6.20
2023-05-05T13:49:48.216Z,3.10
2023-05-05T13:52:18.606Z,3.70
2023-05-05T13:54:46.233Z,3.40
2023-05-05T13:57:19.793Z,4.90
2023-05-05T13:59:50.581Z,6.30
2023-05-05T14:02:19.867Z,4.70
2023-05-05T14:04:50.740Z,4.60
2023-05-05T14:07:23.197Z,6.00
2023-05-05T14:09:49.982Z,5.50
2023-05-05T14:12:16.390Z,4.80
2023-05-05T14:14:42.989Z,3.70
2023-05-05T14:17:09.498Z,3.30
2023-05-05T14:19:36.383Z,3.00
2023-05-05T14:22:03.117Z,4.20
2023-05-05T14:24:29.494Z,4.70
2023-05-05T14:26:56.242Z,3.10
2023-05-05T14:29:22.687Z,3.40
2023-05-05T14:31:49.137Z,8.30
2023-05-05T14:34:15.535Z,4.10
2023-05-05T14:36:41.891Z,3.10
2023-05-05T14:39:08.422Z,3.90
2023-05-05T14:41:34.875Z,5.10
2023-05-05T14:44:01.562Z,6.30
2023-05-05T14:46:27.988Z,2.50
2023-05-05T14:48:54.497Z,2.90
2023-05-05T14:51:20.865Z,3.40
2023-05-05T14:53:47.252Z,6.30
2023-05-05T14:56:13.651Z,3.80
2023-05-05T14:58:40.130Z,3.00
2023-05-05T15:01:06.829Z,3.30
2023-05-05T15:03:33.580Z,5.60
2023-05-05T15:06:00.306Z,5.20
2023-05-05T15:08:26.925Z,2.50
2023-05-05T15:10:53.269Z,2.90
2023-05-05T15:13:19.938Z,3.10
2023-05-05T15:15:46.382Z,5.10
2023-05-05T15:18:12.735Z,4.80
2023-05-05T15:20:39.229Z,5.00
2023-05-05T15:23:05.717Z,2.90
2023-05-05T15:25:32.076Z,3.60
2023-05-05T15:28:00.169Z,2.90
2023-05-05T15:30:27.202Z,2.80
2023-05-05T15:32:53.690Z,4.70
2023-05-05T15:35:20.323Z,4.80
2023-05-05T15:37:46.782Z,5.80
2023-05-05T15:40:13.221Z,3.20
2023-05-05T15:42:39.664Z,5.10
2023-05-05T15:45:07.576Z,4.90
2023-05-05T15:47:34.275Z,4.70
2023-05-05T15:50:00.727Z,4.30
2023-05-05T15:52:27.158Z,3.30
2023-05-05T15:54:53.564Z,2.50
2023-05-05T15:57:20.730Z,3.40
2023-05-05T15:59:50.728Z,3.20
2023-05-05T16:02:17.715Z,3.10
2023-05-05T16:04:44.805Z,2.80
2023-05-05T16:07:11.524Z,4.30
2023-05-05T16:09:38.100Z,2.40
2023-05-05T16:12:05.428Z,4.30
2023-05-05T16:14:32.095Z,3.50
2023-05-05T16:16:58.817Z,3.50
2023-05-05T16:19:28.209Z,3.70
2023-05-05T16:21:54.576Z,3.40
2023-05-05T16:24:21.212Z,3.00
2023-05-05T16:26:47.837Z,3.60
2023-05-05T16:29:14.370Z,3.50
2023-05-05T16:31:40.897Z,3.20
2023-05-05T16:34:07.493Z,2.30
2023-05-05T16:36:33.961Z,2.80
2023-05-05T16:39:00.289Z,5.30
2023-05-05T16:41:26.965Z,4.50
2023-05-05T16:43:53.501Z,6.50
2023-05-05T16:46:20.357Z,4.30
2023-05-05T16:48:47.071Z,5.30
2023-05-05T16:51:13.466Z,4.60
2023-05-05T16:53:40.074Z,3.10
2023-05-05T16:56:06.736Z,3.40
2023-05-05T16:58:33.079Z,3.90
2023-05-05T17:01:01.334Z,4.90
2023-05-05T17:03:27.707Z,3.00
2023-05-05T17:05:54.657Z,2.40
2023-05-05T17:08:21.333Z,3.60
2023-05-05T17:10:47.854Z,5.90
2023-05-05T17:13:14.462Z,4.90
2023-05-05T17:15:42.920Z,6.40
2023-05-05T17:18:09.837Z,6.20
2023-05-05T17:20:36.442Z,8.70
2023-05-05T17:23:03.003Z,7.80
2023-05-05T17:25:29.557Z,7.30
2023-05-05T17:27:56.318Z,6.20
2023-05-05T17:30:23.488Z,5.00
2023-05-05T17:32:49.903Z,5.00
2023-05-05T17:35:16.287Z,8.80
2023-05-05T17:37:42.670Z,9.00
2023-05-05T17:40:09.513Z,4.20
2023-05-05T17:42:35.948Z,5.70
2023-05-05T17:45:02.775Z,4.80
2023-05-05T17:47:30.609Z,4.60
2023-05-05T17:49:57.052Z,5.10
2023-05-05T17:52:23.869Z,4.10
2023-05-05T17:54:50.392Z,4.70
2023-05-05T17:57:20.073Z,5.10
2023-05-05T17:59:48.910Z,7.80
2023-05-05T18:02:15.876Z,4.50
2023-05-05T18:04:42.733Z,6.10
2023-05-05T18:07:11.344Z,6.10
2023-05-05T18:09:38.412Z,7.20
2023-05-05T18:12:05.235Z,7.00
2023-05-05T18:14:31.702Z,5.90
2023-05-05T18:16:58.070Z,4.40
2023-05-05T18:19:24.468Z,4.30
2023-05-05T18:21:52.141Z,4.60
2023-05-05T18:24:20.498Z,7.70
2023-05-05T18:26:49.482Z,4.90
2023-05-05T18:29:17.026Z,7.80
2023-05-05T18:31:44.671Z,5.20
2023-05-05T18:34:11.481Z,7.70
2023-05-05T18:36:37.834Z,6.20
2023-05-05T18:39:04.306Z,8.50
2023-05-05T18:41:30.725Z,5.70
2023-05-05T18:43:59.635Z,6.10
2023-05-05T18:46:26.186Z,5.50
2023-05-05T18:48:52.792Z,8.30
2023-05-05T18:51:19.252Z,5.60
2023-05-05T18:53:45.652Z,6.40
2023-05-05T18:56:12.130Z,7.50
2023-05-05T18:58:38.694Z,7.10
2023-05-05T19:01:05.501Z,5.60
2023-05-05T19:03:33.735Z,4.80
2023-05-05T19:06:05.228Z,10.40
2023-05-05T19:08:32.145Z,8.10
2023-05-05T19:10:58.488Z,6.80
2023-05-05T19:13:25.149Z,11.00
2023-05-05T19:15:53.316Z,5.50
2023-05-05T19:18:19.719Z,8.90
2023-05-05T19:20:46.073Z,6.50
2023-05-05T19:23:12.542Z,8.40
2023-05-05T19:25:39.480Z,7.80
2023-05-05T19:28:05.986Z,9.50
2023-05-05T19:30:32.421Z,10.40
2023-05-05T19:32:58.874Z,5.40
2023-05-05T19:35:25.494Z,10.60
2023-05-05T19:37:51.830Z,8.00
2023-05-05T19:40:18.277Z,9.10
2023-05-05T19:42:44.627Z,9.70
2023-05-05T19:45:11.149Z,11.40
2023-05-05T19:47:37.482Z,6.40
2023-05-05T19:50:04.530Z,6.50
2023-05-05T19:52:31.025Z,14.30
2023-05-05T19:54:58.079Z,9.20
2023-05-05T19:57:24.501Z,10.20
2023-05-05T19:59:51.024Z,6.10
2023-05-05T20:02:17.720Z,9.20
2023-05-05T20:04:44.167Z,8.10
2023-05-05T20:07:10.566Z,10.10
2023-05-05T20:09:37.137Z,8.00
2023-05-05T20:12:03.931Z,6.40
2023-05-05T20:14:30.974Z,8.20
2023-05-05T20:16:57.476Z,8.20
2023-05-05T20:19:24.001Z,11.00
2023-05-05T20:21:50.447Z,7.20
2023-05-05T20:24:16.879Z,7.10
2023-05-05T20:26:43.311Z,5.60
2023-05-05T20:29:09.716Z,8.00
2023-05-05T20:31:36.726Z,8.70
2023-05-05T20:34:03.245Z,9.00
2023-05-05T20:36:29.686Z,5.80
2023-05-05T20:38:56.058Z,10.50
2023-05-05T20:41:22.545Z,6.00
2023-05-05T20:43:48.982Z,9.00
2023-05-05T20:46:15.739Z,6.50
2023-05-05T20:48:43.142Z,8.00
2023-05-05T20:51:09.693Z,8.00
2023-05-05T20:53:36.121Z,9.50
2023-05-05T20:56:02.977Z,7.30
2023-05-05T20:58:29.522Z,9.10
2023-05-05T21:00:56.188Z,10.40
2023-05-05T21:03:22.771Z,7.30
2023-05-05T21:05:49.302Z,9.60
2023-05-05T21:08:15.656Z,11.40
2023-05-05T21:10:42.058Z,7.70
2023-05-05T21:13:08.534Z,7.40
2023-05-05T21:15:38.286Z,10.60
2023-05-05T21:18:05.901Z,7.10
2023-05-05T21:20:32.454Z,10.20
2023-05-05T21:22:59.062Z,8.00
2023-05-05T21:25:26.080Z,7.10
2023-05-05T21:27:52.593Z,7.50
2023-05-05T21:30:19.188Z,8.60
2023-05-05T21:32:45.648Z,5.70
2023-05-05T21:35:12.539Z,7.70
2023-05-05T21:37:39.550Z,9.50
2023-05-05T21:40:13.005Z,6.00
2023-05-05T21:42:40.793Z,9.40
2023-05-05T21:45:08.084Z,5.10
2023-05-05T21:47:35.030Z,6.30
2023-05-05T21:50:01.542Z,10.10
2023-05-05T21:52:27.974Z,6.70
2023-05-05T21:54:54.410Z,7.40
2023-05-05T21:57:20.766Z,7.30
2023-05-05T21:59:47.170Z,8.90
2023-05-05T22:02:13.583Z,6.80
2023-05-05T22:04:41.413Z,9.20
2023-05-05T22:07:08.030Z,6.00
2023-05-05T22:09:34.525Z,6.00
2023-05-05T22:12:01.778Z,7.40
2023-05-05T22:14:28.077Z,8.90
2023-05-05T22:16:54.664Z,6.90
2023-05-05T22:19:21.366Z,9.80
2023-05-05T22:21:47.694Z,7.30
2023-05-05T22:24:14.439Z,7.60
2023-05-05T22:26:42.463Z,7.70
2023-05-05T22:29:10.073Z,8.40
2023-05-05T22:31:36.999Z,12.00
2023-05-05T22:34:03.583Z,12.20
2023-05-05T22:36:30.722Z,13.90
2023-05-05T22:38:57.190Z,10.20
2023-05-05T22:41:24.199Z,11.30
2023-05-05T22:43:51.131Z,7.30
2023-05-05T22:46:17.573Z,19.70
2023-05-05T22:48:43.901Z,15.80
2023-05-05T22:51:10.800Z,9.10
2023-05-05T22:53:38.171Z,10.40
2023-05-05T22:56:05.609Z,12.80
2023-05-05T22:58:32.053Z,9.00
2023-05-05T23:00:58.435Z,7.90
2023-05-05T23:03:24.781Z,8.30
2023-05-05T23:05:51.403Z,10.90
2023-05-05T23:08:17.860Z,8.50
2023-05-05T23:10:44.288Z,8.50
2023-05-05T23:13:10.836Z,8.10
2023-05-05T23:15:37.331Z,6.20
2023-05-05T23:18:03.740Z,7.20
2023-05-05T23:20:30.224Z,13.00
2023-05-05T23:22:56.694Z,14.80
2023-05-05T23:25:23.054Z,10.00
2023-05-05T23:27:49.985Z,7.30
2023-05-05T23:30:16.588Z,11.10
2023-05-05T23:32:44.191Z,13.90
2023-05-05T23:35:11.179Z,8.60
2023-05-05T23:37:37.800Z,11.10
2023-05-05T23:40:06.207Z,9.90
2023-05-05T23:42:32.766Z,7.50
2023-05-05T23:45:00.244Z,10.10
2023-05-05T23:47:27.175Z,10.10
2023-05-05T23:49:53.505Z,6.80
2023-05-05T23:52:20.287Z,13.10
2023-05-05T23:54:46.691Z,7.50
2023-05-05T23:57:13.065Z,9.30
2023-05-05T23:59:39.936Z,10.90
